Flight Track Log - Related Links

Times and Time Zones

All times are in EST time to prevent confusion due to time zone crossing. See the N45NS flight status page for this flight to view local times or setup timezone preferences in your user account.

Time Position Orientation Groundspeed Altitude Reporting Facility
EST Latitude Longitude Course Direction KTS MPH feet Rate Location/Type
Wed 11:50:02 AM 40.8703 -81.8550 152° Southeast 225 259 2,400  Level Indianapolis Center
Wed 11:51:04 AM 40.8072 -81.8114 152° Southeast 222 255 6,200 3,242 Climbing Cleveland Center
Wed 11:52:06 AM 40.7633 -81.7289 125° Southeast 283 326 9,100 2,878 Climbing Cleveland Center
Wed 11:53:07 AM 40.7003 -81.6517 137° Southeast 323 372 12,100 3,073 Climbing Cleveland Center
Wed 11:54:09 AM 40.6114 -81.6336 171° South 321 369 15,400 2,806 Climbing Cleveland Center
Wed 11:55:11 AM 40.5178 -81.6122 170° South 330 380 17,900 1,561 Climbing Cleveland Center
Wed 11:56:12 AM 40.4108 -81.5894 171° South 376 433 18,600 1,024 Climbing Cleveland Center
Wed 11:57:14 AM 40.2906 -81.5619 170° South 403 464 20,000 1,171 Climbing Cleveland Center
Wed 11:58:15 AM 40.1844 -81.5386 170° South 408 470 21,000 1,512 Climbing Indianapolis Center
Wed 11:59:17 AM 40.0717 -81.5133 170° South 408 470 23,100 2,098 Climbing Indianapolis Center
Wed 12:00:18 PM 39.9475 -81.4864 171° South 404 465 25,300 2,049 Climbing Indianapolis Center
Wed 12:01:20 PM 39.8317 -81.4600 170° South 403 464 27,300 1,805 Climbing Indianapolis Center
Wed 12:02:21 PM 39.7294 -81.4367 170° South 397 457 29,000 1,659 Climbing Indianapolis Center
Wed 12:03:23 PM 39.6189 -81.4119 170° South 397 457 30,700 1,645 Climbing Indianapolis Center
Wed 12:04:25 PM 39.5072 -81.3839 169° South 402 463 32,400 1,707 Climbing Indianapolis Center
Wed 12:05:26 PM 39.3992 -81.3597 170° South 396 456 34,200 1,707 Climbing Indianapolis Center
Wed 12:06:28 PM 39.2958 -81.3600 180° South 374 430 35,900 1,610 Climbing Indianapolis Center
Wed 12:07:29 PM 39.1739 -81.3561 179° South 367 422 37,500 1,366 Climbing Indianapolis Center
Wed 12:08:31 PM 39.0756 -81.3525 178° South 357 411 38,700 1,016 Climbing Indianapolis Center
Wed 12:09:33 PM 38.9769 -81.3500 179° South 355 409 39,600 634 Climbing Indianapolis Center
Wed 12:10:34 PM 38.8769 -81.3467 179° South 355 409 40,000 195 Climbing Indianapolis Center
Wed 12:11:36 PM 38.7703 -81.3431 178° South 371 427 40,000  Level Indianapolis Center
Wed 12:12:38 PM 38.6569 -81.3406 179° South 391 450 40,000  Level Indianapolis Center
Wed 12:13:39 PM 38.5433 -81.3381 179° South 397 457 40,000  Level Indianapolis Center
Wed 12:14:41 PM 38.4311 -81.3350 179° South 397 457 40,000  Level Indianapolis Center
Wed 12:15:43 PM 38.3194 -81.3133 171° South 402 463 40,000  Level Indianapolis Center
Wed 12:16:44 PM 38.2072 -81.2831 168° South 405 466 40,000  Level Indianapolis Center
Wed 12:17:46 PM 38.0956 -81.2536 168° South 405 466 40,000  Level Indianapolis Center
Wed 12:18:47 PM 37.9847 -81.2264 169° South 405 466 40,000  Level Indianapolis Center
Wed 12:19:49 PM 37.8528 -81.2261 180° South 397 457 40,000  Level Indianapolis Center
Wed 12:20:51 PM 37.7414 -81.2231 179° South 389 448 40,000  Level Indianapolis Center
Wed 12:21:52 PM 37.6367 -81.2219 180° South 386 444 40,000  Level Indianapolis Center
Wed 12:22:54 PM 37.5336 -81.2192 179° South 386 444 40,000  Level Indianapolis Center
Wed 12:23:55 PM 37.4289 -81.2181 180° South 386 444 40,000  Level Indianapolis Center
Wed 12:24:57 PM 37.3044 -81.2169 180° South 385 443 40,000  Level Indianapolis Center
Wed 12:25:59 PM 37.1928 -81.2153 179° South 385 443 40,000  Level Indianapolis Center
Wed 12:26:46 PM 37.1183 -81.2147 180° South 382 440 40,000  Level Atlanta Center
Wed 12:27:46 PM 37.0100 -81.2161 181° South 387 445 40,000  Level Atlanta Center
Wed 12:28:46 PM 36.9036 -81.2119 178° South 387 445 40,000  Level Atlanta Center
Wed 12:29:46 PM 36.7953 -81.2106 179° South 387 445 40,000  Level Atlanta Center
Wed 12:30:46 PM 36.6950 -81.2092 179° South 380 437 40,000  Level Atlanta Center
Wed 12:31:46 PM 36.5886 -81.2050 178° South 380 437 40,000  Level Atlanta Center
Wed 12:32:46 PM 36.4822 -81.2036 179° South 386 444 40,000  Level Atlanta Center
Wed 12:33:46 PM 36.3739 -81.2050 181° South 386 444 40,000  Level Atlanta Center
Wed 12:34:46 PM 36.2694 -81.2033 179° South 381 438 40,000  Level Atlanta Center
Wed 12:35:46 PM 36.1672 -81.2019 179° South 381 438 40,000  Level Atlanta Center
Wed 12:36:46 PM 36.0631 -81.2003 179° South 381 438 40,000  Level Atlanta Center
Wed 12:37:46 PM 35.9586 -81.1989 179° South 381 438 40,000  Level Atlanta Center
Wed 12:38:46 PM 35.8564 -81.1972 179° South 381 438 40,000  Level Atlanta Center
Wed 12:39:46 PM 35.7542 -81.1958 179° South 381 438 40,000  Level Atlanta Center
Wed 12:40:46 PM 35.6311 -81.1925 179° South 388 447 40,000  Level Atlanta Center
Wed 12:41:46 PM 35.5289 -81.1933 180° South 388 447 40,000  Level Atlanta Center
Wed 12:42:46 PM 35.4225 -81.1919 179° South 387 445 40,000  Level Atlanta Center
Wed 12:43:46 PM 35.3203 -81.1931 181° South 375 432 40,000  Level Atlanta Center
Wed 12:44:46 PM 35.2158 -81.1914 179° South 375 432 40,000 200 Level Atlanta Center
Wed 12:45:46 PM 35.1133 -81.1875 178° South 375 432 40,400 657 Climbing Atlanta Center
Wed 12:48:07 PM 34.8908 -81.1867 180° South 363 418 42,200 776 Climbing Jacksonville Center
Wed 12:49:07 PM 34.7969 -81.1836 178° South 357 411 43,000 400 Climbing Jacksonville Center
Wed 12:50:07 PM 34.7011 -81.1856 181° South 346 398 43,000  Level Jacksonville Center
Wed 12:51:07 PM 34.6008 -81.1825 179° South 351 404 43,000  Level Jacksonville Center
Wed 12:52:07 PM 34.4986 -81.1819 180° South 358 412 43,000  Level Jacksonville Center
Wed 12:53:07 PM 34.3964 -81.1814 180° South 369 425 43,000  Level Jacksonville Center
Wed 12:54:07 PM 34.2881 -81.1811 180° South 379 436 43,000  Level Jacksonville Center
Wed 12:55:07 PM 34.1878 -81.1756 177° South 373 429 43,000  Level Jacksonville Center
Wed 12:56:07 PM 34.0792 -81.1725 179° South 378 435 43,000  Level Jacksonville Center
Wed 12:57:07 PM 33.9728 -81.1697 179° South 383 441 43,000  Level Jacksonville Center
Wed 12:58:07 PM 33.8683 -81.1692 180° South 383 441 43,000  Level Jacksonville Center
Wed 12:59:07 PM 33.7619 -81.1689 180° South 383 441 43,000  Level Jacksonville Center
Wed 01:00:07 PM 33.6514 -81.1661 179° South 388 447 43,000  Level Jacksonville Center
Wed 01:01:07 PM 33.5428 -81.1656 180° South 388 447 43,000  Level Jacksonville Center
Wed 01:02:07 PM 33.4364 -81.1653 180° South 388 447 43,000  Level Jacksonville Center
Wed 01:03:07 PM 33.3278 -81.1622 179° South 383 441 43,000  Level Jacksonville Center
Wed 01:04:07 PM 33.2236 -81.1619 180° South 383 441 43,000  Level Jacksonville Center
Wed 01:05:07 PM 33.1169 -81.1589 179° South 383 441 43,000  Level Jacksonville Center
Wed 01:06:07 PM 33.0147 -81.1586 180° South 383 441 43,000  Level Jacksonville Center
Wed 01:07:07 PM 32.9103 -81.1556 179° South 383 441 43,000  Level Jacksonville Center
Wed 01:08:07 PM 32.8081 -81.1550 180° South 377 434 43,000  Level Jacksonville Center
Wed 01:09:07 PM 32.7036 -81.1544 180° South 377 434 43,000  Level Jacksonville Center
Wed 01:10:07 PM 32.5972 -81.1567 181° South 362 417 43,000  Level Jacksonville Center
Wed 01:11:07 PM 32.5053 -81.1558 180° South 362 417 43,000  Level Jacksonville Center
Wed 01:12:07 PM 32.3947 -81.1506 178° South 367 422 43,000  Level Jacksonville Center
Wed 01:13:07 PM 32.3028 -81.1525 181° South 362 417 43,000  Level Jacksonville Center
Wed 01:14:07 PM 32.2006 -81.1494 179° South 370 426 43,000  Level Jacksonville Center
Wed 01:15:07 PM 32.0897 -81.1492 180° South 363 418 43,000  Level Jacksonville Center
Wed 01:16:07 PM 31.9875 -81.1461 179° South 368 423 43,000  Level Jacksonville Center
Wed 01:17:07 PM 31.8831 -81.1433 179° South 368 423 43,000  Level Jacksonville Center
Wed 01:18:07 PM 31.7808 -81.1453 181° South 368 423 43,000  Level Jacksonville Center
Wed 01:19:07 PM 31.6889 -81.1444 180° South 365 420 43,000  Level Jacksonville Center
Wed 01:20:07 PM 31.5761 -81.1417 179° South 365 420 43,000  Level Jacksonville Center
Wed 01:21:07 PM 31.4758 -81.1411 180° South 365 420 43,000  Level Jacksonville Center
Wed 01:22:07 PM 31.3797 -81.1381 178° South 370 426 43,000  Level Jacksonville Center
Wed 01:23:07 PM 31.2775 -81.1400 181° South 370 426 43,000  Level Jacksonville Center
Wed 01:24:07 PM 31.1731 -81.1369 179° South 370 426 43,000  Level Jacksonville Center
Wed 01:25:07 PM 31.0686 -81.1367 180° South 370 426 43,000  Level Jacksonville Center
Wed 01:26:07 PM 30.9664 -81.1361 180° South 370 426 43,000  Level Jacksonville Center
Wed 01:27:07 PM 30.8639 -81.1331 179° South 370 426 43,000  Level Jacksonville Center
Wed 01:28:07 PM 30.7597 -81.1303 179° South 365 420 43,000  Level Jacksonville Center
Wed 01:29:07 PM 30.6553 -81.1297 180° South 365 420 43,000  Level Jacksonville Center
Wed 01:30:07 PM 30.5528 -81.1292 180° South 370 426 43,000  Level Jacksonville Center
Wed 01:31:07 PM 30.4506 -81.1264 179° South 370 426 43,000  Level Jacksonville Center
Wed 01:32:07 PM 30.3442 -81.1258 180° South 370 426 43,000  Level Jacksonville Center
Wed 01:33:07 PM 30.2397 -81.1253 180° South 370 426 43,000  Level Jacksonville Center
Wed 01:34:07 PM 30.1394 -81.1225 179° South 363 418 43,000  Level Jacksonville Center
Wed 01:35:07 PM 30.0347 -81.1050 172° South 368 423 43,000  Level Jacksonville Center
Wed 01:36:07 PM 29.9297 -81.0567 158° South 377 434 43,000  Level Jacksonville Center
Wed 01:37:07 PM 29.8244 -81.0061 157° South 391 450 43,000  Level Jacksonville Center
Wed 01:38:07 PM 29.7194 -80.9531 156° South 397 457 43,000  Level Jacksonville Center
Wed 01:39:07 PM 29.6142 -80.9003 156° South 402 463 43,000  Level Jacksonville Center
Wed 01:41:00 PM 29.4208 -80.8058 157° South 401 461 43,000  Level Miami Center
Wed 01:42:00 PM 29.3161 -80.7497 155° Southeast 401 461 43,000  Level Miami Center
Wed 01:43:00 PM 29.2111 -80.6983 157° South 407 468 43,000  Level Miami Center
Wed 01:44:00 PM 29.1042 -80.6447 156° South 412 474 43,000  Level Miami Center
Wed 01:45:00 PM 28.9989 -80.5936 157° South 412 474 43,000  Level Miami Center
Wed 01:46:00 PM 28.8878 -80.5356 155° Southeast 412 474 43,000 -350 Level Miami Center
Wed 01:47:00 PM 28.7806 -80.4869 158° South 405 466 42,300 -850 Descending Miami Center
Wed 01:48:00 PM 28.6900 -80.4389 155° Southeast 405 466 41,300 -1,050 Descending Miami Center
Wed 01:49:00 PM 28.5808 -80.3858 157° South 395 455 40,200 -1,050 Descending Miami Center
Wed 01:50:00 PM 28.4839 -80.3381 157° South 390 449 39,200 -1,000 Descending Miami Center
Wed 01:51:00 PM 28.3828 -80.2900 157° South 384 442 38,200 -950 Descending Miami Center
Wed 01:52:00 PM 28.2919 -80.2472 157° South 390 449 37,300 -950 Descending Miami Center
Wed 01:53:00 PM 28.1889 -80.1969 157° South 395 455 36,300 -591 Descending Miami Center
Wed 01:54:12 PM 28.0628 -80.1367 157° South 389 448 36,000 -182 Descending Miami Center
Wed 01:55:12 PM 27.9700 -80.0894 156° South 377 434 35,900 -950 Descending Miami Center
Wed 01:56:12 PM 27.8792 -80.0469 158° South 377 434 34,100 -2,000 Descending Miami Center
Wed 01:57:12 PM 27.7592 -79.9919 158° South 401 461 31,900 -2,100 Descending Miami Center
Wed 01:58:12 PM 27.6556 -79.9586 164° South 406 467 29,900 -2,000 Descending Miami Center
Wed 01:59:12 PM 27.5497 -79.9275 165° South 395 455 27,900 -1,950 Descending Miami Center
Wed 02:00:12 PM 27.4439 -79.8967 166° South 395 455 26,000 -1,850 Descending Miami Center
Wed 02:01:12 PM 27.3464 -79.8636 163° South 395 455 24,200 -1,000 Descending Miami Center
Wed 02:02:12 PM 27.2386 -79.8306 165° South 395 455 24,000 -100 Descending Miami Center
Wed 02:03:12 PM 27.1203 -79.7950 165° South 395 455 24,000 -450 Level Miami Center
Wed 02:04:12 PM 27.0122 -79.7642 166° South 395 455 23,100 -1,950 Descending Miami Center
Wed 02:05:12 PM 26.9064 -79.7314 165° South 395 455 20,100 -2,850 Descending Miami Center
Wed 02:06:12 PM 26.8131 -79.7033 165° South 393 452 17,400 -2,800 Descending Miami Center
Wed 02:07:12 PM 26.7044 -79.7053 181° South 378 435 14,500 -2,800 Descending Miami Center
Wed 02:08:12 PM 26.6136 -79.7519 205° Southwest 346 398 11,800 -2,667 Descending Miami Center
Wed 02:08:24 PM 26.5947 -79.7583 197° South 359 413 11,300 -2,100 Descending Miami Center
Wed 02:09:12 PM 26.5294 -79.7894 203° Southwest 351 404 9,700 -1,884 Descending Miami Center
Wed 02:09:50 PM 26.4831 -79.8114 203° Southwest 267 307 8,600 -1,700 Descending Miami Center
Wed 02:10:12 PM 26.4597 -79.8225 203° Southwest 310 357 8,000 -512 Descending Miami Center
Wed 02:11:12 PM 26.3922 -79.8578 205° Southwest 285 328 7,900  Descending Miami Center
Wed 02:11:45 PM 26.3539 -79.8869 214° Southwest 267 307 8,000 -200 Climbing Miami Center
Wed 02:12:12 PM 26.3389 -79.9122 236° Southwest 263 303 7,700 -1,164 Descending Miami Center
Wed 02:12:52 PM 26.3231 -79.9650 252° West 274 315 6,700 -1,700 Descending Miami Center
Wed 02:13:12 PM 26.3183 -79.9906 258° West 257 296 6,000 -1,920 Descending Miami Center
Wed 02:13:42 PM 26.3092 -80.0294 255° West 265 305 5,100 -1,800 Descending Miami Center
Wed 02:14:12 PM 26.3019 -80.0733 260° West 262 302 4,200 -1,075 Descending Miami Center
Wed 02:14:49 PM 26.2928 -80.1103 255° West 238 274 3,900 -300 Descending Miami Center
Wed 02:15:12 PM 26.2819 -80.1308 240° Southwest 243 280 3,900 -545 Level Miami Center
Wed 02:15:55 PM 26.2603 -80.1672 236° Southwest 170 196 3,300 -900 Descending Miami Center
Wed 02:16:12 PM 26.2558 -80.1786 246° West 206 237 3,000 -295 Descending Miami Center
Wed 02:16:56 PM 26.2425 -80.2108 245° Southwest 156 180 3,000 -100 Level Miami Center
Wed 02:17:12 PM 26.2381 -80.2222 246° West 177 204 2,900 -643 Descending Miami Center
Wed 02:17:52 PM 26.2289 -80.2589 254° West 173 199 2,400 -900 Descending Miami Center
Wed 02:18:12 PM 26.2303 -80.2800 274° West 168 193 2,000 -358 Descending Miami Center
Wed 02:18:59 PM 26.2089 -80.3094 231° Southwest 183 211 2,000  Level Miami Center
Wed 02:19:54 PM 26.1758 -80.2875 149° Southeast 173 199 2,000 -517 Level Miami Center
Wed 02:20:55 PM 26.1894 -80.2394 72° East 168 193 1,000 -879 Descending Miami Center
Wed 02:21:50 PM 26.1947 -80.2025 81° East 123 142 300 -764 Descending Miami Center

Login

Don't have an account? Register now (free) for customized features, flight alerts, and more!